createdAt,value
2022-09-04T00:00:30.829Z,990.36
2022-09-04T00:01:30.817Z,990.35
2022-09-04T00:02:30.872Z,990.34
2022-09-04T00:03:30.791Z,990.36
2022-09-04T00:04:30.882Z,990.36
2022-09-04T00:05:30.916Z,990.39
2022-09-04T00:06:30.765Z,990.38
2022-09-04T00:07:30.799Z,990.40
2022-09-04T00:08:30.734Z,990.34
2022-09-04T00:09:30.765Z,990.31
2022-09-04T00:10:30.709Z,990.32
2022-09-04T00:11:30.694Z,990.32
2022-09-04T00:12:30.665Z,990.35
2022-09-04T00:13:30.654Z,990.33
2022-09-04T00:14:30.654Z,990.35
2022-09-04T00:15:30.763Z,990.34
2022-09-04T00:16:30.707Z,990.32
2022-09-04T00:17:30.674Z,990.40
2022-09-04T00:18:30.604Z,990.39
2022-09-04T00:19:30.593Z,990.41
2022-09-04T00:20:30.582Z,990.40
2022-09-04T00:21:30.569Z,990.39
2022-09-04T00:22:30.542Z,990.38
2022-09-04T00:23:30.531Z,990.39
2022-09-04T00:24:30.513Z,990.40
2022-09-04T00:25:30.530Z,990.40
2022-09-04T00:26:30.504Z,990.40
2022-09-04T00:27:30.532Z,990.38
2022-09-04T00:28:31.475Z,990.42
2022-09-04T00:29:30.467Z,990.43
2022-09-04T00:30:30.511Z,990.43
2022-09-04T00:31:30.631Z,990.44
2022-09-04T00:32:30.441Z,990.43
2022-09-04T00:33:30.390Z,990.42
2022-09-04T00:34:30.380Z,990.43
2022-09-04T00:35:30.386Z,990.41
2022-09-04T00:36:30.446Z,990.39
2022-09-04T00:37:30.372Z,990.41
2022-09-04T00:38:30.370Z,990.39
2022-09-04T00:39:30.420Z,990.40
2022-09-04T00:40:31.507Z,990.39
2022-09-04T00:41:30.372Z,990.39
2022-09-04T00:42:30.308Z,990.36
2022-09-04T00:43:30.275Z,990.37
2022-09-04T00:44:30.260Z,990.36
2022-09-04T00:45:30.328Z,990.37
2022-09-04T00:46:30.357Z,990.38
2022-09-04T00:47:30.235Z,990.36
2022-09-04T00:48:30.238Z,990.36
2022-09-04T00:49:30.197Z,990.37
2022-09-04T00:50:30.201Z,990.35
2022-09-04T00:51:30.178Z,990.39
2022-09-04T00:52:36.597Z,990.43
2022-09-04T00:53:31.175Z,990.46
2022-09-04T00:54:30.147Z,990.45
2022-09-04T00:55:30.127Z,990.47
2022-09-04T00:56:30.118Z,990.50
2022-09-04T00:57:30.105Z,990.56
2022-09-04T00:58:30.086Z,990.60
2022-09-04T00:59:30.084Z,990.57
2022-09-04T01:00:30.108Z,990.59
2022-09-04T01:01:30.150Z,990.64
2022-09-04T01:02:30.114Z,990.63
2022-09-04T01:03:30.061Z,990.61
2022-09-04T01:04:30.015Z,990.61
2022-09-04T01:05:29.983Z,990.65
2022-09-04T01:06:30.012Z,990.65
2022-09-04T01:07:30.000Z,990.68
2022-09-04T01:08:30.019Z,990.68
2022-09-04T01:09:29.952Z,990.70
2022-09-04T01:10:29.934Z,990.69
2022-09-04T01:11:29.913Z,990.69
2022-09-04T01:12:29.924Z,990.69
2022-09-04T01:13:29.911Z,990.71
2022-09-04T01:14:29.881Z,990.71
2022-09-04T01:15:29.863Z,990.70
2022-09-04T01:16:29.868Z,990.71
2022-09-04T01:17:29.840Z,990.73
2022-09-04T01:18:30.812Z,990.71
2022-09-04T01:19:29.835Z,990.74
2022-09-04T01:20:29.905Z,990.74
2022-09-04T01:21:29.790Z,990.76
2022-09-04T01:22:29.829Z,990.76
2022-09-04T01:23:29.790Z,990.75
2022-09-04T01:24:29.790Z,990.76
2022-09-04T01:25:29.735Z,990.77
2022-09-04T01:26:29.739Z,990.78
2022-09-04T01:27:29.723Z,990.77
2022-09-04T01:28:29.729Z,990.77
2022-09-04T01:29:29.740Z,990.79
2022-09-04T01:30:29.720Z,990.82
2022-09-04T01:31:29.800Z,990.83
2022-09-04T01:32:29.688Z,990.83
2022-09-04T01:33:29.636Z,990.84
2022-09-04T01:34:29.650Z,990.84
2022-09-04T01:35:29.632Z,990.84
2022-09-04T01:36:29.618Z,990.85
2022-09-04T01:37:29.596Z,990.85
2022-09-04T01:38:29.616Z,990.87
2022-09-04T01:39:29.585Z,990.87
2022-09-04T01:40:35.972Z,990.87
2022-09-04T01:41:33.946Z,990.88
2022-09-04T01:42:30.547Z,990.86
2022-09-04T01:43:29.505Z,990.87
2022-09-04T01:44:29.535Z,990.91
2022-09-04T01:45:29.495Z,990.91
2022-09-04T01:46:29.496Z,990.89
2022-09-04T01:47:29.483Z,990.91
2022-09-04T01:48:29.470Z,990.91
2022-09-04T01:49:29.454Z,990.89
2022-09-04T01:50:29.574Z,990.95
2022-09-04T01:51:29.433Z,990.93
2022-09-04T01:52:29.416Z,990.93
2022-09-04T01:53:32.812Z,990.93
2022-09-04T01:54:29.444Z,990.88
2022-09-04T01:55:29.372Z,990.93
2022-09-04T01:56:29.353Z,990.92
2022-09-04T01:57:29.351Z,990.92
2022-09-04T01:58:29.332Z,990.89
2022-09-04T01:59:29.301Z,990.93
2022-09-04T02:00:29.374Z,990.88
2022-09-04T02:01:29.374Z,990.92
2022-09-04T02:02:29.335Z,990.89
2022-09-04T02:03:29.941Z,990.89
2022-09-04T02:04:29.251Z,990.90
2022-09-04T02:05:29.249Z,990.88
2022-09-04T02:06:29.220Z,990.91
2022-09-04T02:07:29.233Z,990.92
2022-09-04T02:08:29.258Z,990.91
2022-09-04T02:09:29.250Z,990.91
2022-09-04T02:10:29.201Z,990.87
2022-09-04T02:11:29.171Z,990.92
2022-09-04T02:12:29.150Z,990.94
2022-09-04T02:13:29.202Z,990.97
2022-09-04T02:14:29.128Z,990.94
2022-09-04T02:15:29.102Z,990.94
2022-09-04T02:16:29.150Z,990.98
2022-09-04T02:17:29.093Z,990.99
2022-09-04T02:18:29.132Z,990.97
2022-09-04T02:19:29.069Z,991.03
2022-09-04T02:20:29.047Z,991.07
2022-09-04T02:21:29.066Z,991.10
2022-09-04T02:22:29.028Z,991.08
2022-09-04T02:23:29.085Z,991.05
2022-09-04T02:24:28.986Z,991.06
2022-09-04T02:25:28.976Z,991.06
2022-09-04T02:26:28.956Z,991.08
2022-09-04T02:27:28.968Z,991.06
2022-09-04T02:28:28.935Z,991.05
2022-09-04T02:29:28.916Z,991.07
2022-09-04T02:30:28.969Z,991.05
2022-09-04T02:31:28.950Z,991.05
2022-09-04T02:32:28.904Z,991.07
2022-09-04T02:33:28.905Z,991.12
2022-09-04T02:34:28.887Z,991.11
2022-09-04T02:35:28.874Z,991.12
2022-09-04T02:36:28.844Z,991.11
2022-09-04T02:37:28.818Z,991.12
2022-09-04T02:38:28.844Z,991.12
2022-09-04T02:39:28.840Z,991.12
2022-09-04T02:40:28.786Z,991.14
2022-09-04T02:41:28.836Z,991.16
2022-09-04T02:42:28.802Z,991.16
2022-09-04T02:43:28.771Z,991.20
2022-09-04T02:44:28.780Z,991.18
2022-09-04T02:45:28.782Z,991.20
2022-09-04T02:46:28.825Z,991.18
2022-09-04T02:47:28.730Z,991.20
2022-09-04T02:48:28.702Z,991.19
2022-09-04T02:49:28.687Z,991.20
2022-09-04T02:50:28.650Z,991.18
2022-09-04T02:51:28.651Z,991.17
2022-09-04T02:52:28.670Z,991.19
2022-09-04T02:53:28.641Z,991.20
2022-09-04T02:54:28.600Z,991.21
2022-09-04T02:55:28.641Z,991.23
2022-09-04T02:56:28.597Z,991.26
2022-09-04T02:57:28.589Z,991.23
2022-09-04T02:58:28.576Z,991.24
2022-09-04T02:59:28.578Z,991.26
2022-09-04T03:00:28.565Z,991.22
2022-09-04T03:01:28.520Z,991.23
2022-09-04T03:02:28.626Z,991.20
2022-09-04T03:03:28.536Z,991.22
2022-09-04T03:04:28.497Z,991.19
2022-09-04T03:05:28.504Z,991.19
2022-09-04T03:06:28.544Z,991.21
2022-09-04T03:07:28.448Z,991.16
2022-09-04T03:08:28.461Z,991.22
2022-09-04T03:09:28.415Z,991.18
2022-09-04T03:10:28.416Z,991.20
2022-09-04T03:11:28.447Z,991.20
2022-09-04T03:12:28.379Z,991.19
2022-09-04T03:13:28.377Z,991.20
2022-09-04T03:14:28.338Z,991.19
2022-09-04T03:15:28.367Z,991.21
2022-09-04T03:16:28.424Z,991.22
2022-09-04T03:17:28.328Z,991.26
2022-09-04T03:18:28.377Z,991.26
2022-09-04T03:19:28.416Z,991.24
2022-09-04T03:20:28.304Z,991.24
2022-09-04T03:21:28.295Z,991.29
2022-09-04T03:22:28.257Z,991.30
2022-09-04T03:23:28.254Z,991.27
2022-09-04T03:24:28.228Z,991.33
2022-09-04T03:25:28.203Z,991.32
2022-09-04T03:26:28.254Z,991.31
2022-09-04T03:27:28.190Z,991.35
2022-09-04T03:28:28.193Z,991.36
2022-09-04T03:29:28.162Z,991.39
2022-09-04T03:30:28.166Z,991.38
2022-09-04T03:31:28.247Z,991.38
2022-09-04T03:32:28.124Z,991.38
2022-09-04T03:33:28.142Z,991.39
2022-09-04T03:34:28.119Z,991.41
2022-09-04T03:35:28.091Z,991.42
2022-09-04T03:36:28.112Z,991.41
2022-09-04T03:37:28.081Z,991.38
2022-09-04T03:38:28.060Z,991.37
2022-09-04T03:39:28.052Z,991.38
2022-09-04T03:40:28.038Z,991.38
2022-09-04T03:41:28.066Z,991.37
2022-09-04T03:42:27.994Z,991.36
2022-09-04T03:43:28.008Z,991.39
2022-09-04T03:44:27.991Z,991.36
2022-09-04T03:45:27.961Z,991.36
2022-09-04T03:46:28.033Z,991.36
2022-09-04T03:47:27.941Z,991.35
2022-09-04T03:48:27.951Z,991.33
2022-09-04T03:49:27.901Z,991.32
2022-09-04T03:50:27.919Z,991.33
2022-09-04T03:51:27.899Z,991.33
2022-09-04T03:52:27.921Z,991.32
2022-09-04T03:53:27.886Z,991.31
2022-09-04T03:54:27.850Z,991.36
2022-09-04T03:55:27.838Z,991.38
2022-09-04T03:56:27.847Z,991.38
2022-09-04T03:57:27.805Z,991.36
2022-09-04T03:58:27.897Z,991.38
2022-09-04T03:59:27.800Z,991.43
2022-09-04T04:00:27.827Z,991.42
2022-09-04T04:01:27.852Z,991.46
2022-09-04T04:02:27.779Z,991.46
2022-09-04T04:03:27.737Z,991.45
2022-09-04T04:04:27.735Z,991.44
2022-09-04T04:05:27.992Z,991.53
2022-09-04T04:06:27.695Z,991.48
2022-09-04T04:07:27.696Z,991.48
2022-09-04T04:08:27.674Z,991.51
2022-09-04T04:09:27.695Z,991.48
2022-09-04T04:10:27.644Z,991.50
2022-09-04T04:11:27.676Z,991.54
2022-09-04T04:12:27.631Z,991.54
2022-09-04T04:13:27.602Z,991.58
2022-09-04T04:14:27.593Z,991.58
2022-09-04T04:15:27.563Z,991.56
2022-09-04T04:16:27.565Z,991.62
2022-09-04T04:17:27.569Z,991.61
2022-09-04T04:18:27.544Z,991.62
2022-09-04T04:19:27.527Z,991.63
2022-09-04T04:20:27.571Z,991.61
2022-09-04T04:21:27.504Z,991.68
2022-09-04T04:22:27.471Z,991.67
2022-09-04T04:23:27.470Z,991.65
2022-09-04T04:24:27.441Z,991.71
2022-09-04T04:25:27.451Z,991.72
2022-09-04T04:26:27.420Z,991.68
2022-09-04T04:27:27.424Z,991.69
2022-09-04T04:28:27.408Z,991.71
2022-09-04T04:29:27.440Z,991.74
2022-09-04T04:30:27.409Z,991.77
2022-09-04T04:31:27.469Z,991.81
2022-09-04T04:32:27.349Z,991.82
2022-09-04T04:33:27.343Z,991.85
2022-09-04T04:34:27.370Z,991.86
2022-09-04T04:35:27.327Z,991.87
2022-09-04T04:36:27.296Z,991.83
2022-09-04T04:37:27.290Z,991.87
2022-09-04T04:38:27.265Z,991.88
2022-09-04T04:39:30.302Z,991.90
2022-09-04T04:40:27.267Z,991.91
2022-09-04T04:41:27.245Z,991.95
2022-09-04T04:42:27.206Z,991.94
2022-09-04T04:43:27.217Z,992.00
2022-09-04T04:44:27.196Z,991.98
2022-09-04T04:45:27.194Z,991.95
2022-09-04T04:46:27.265Z,991.97
2022-09-04T04:47:27.157Z,991.98
2022-09-04T04:48:27.142Z,992.02
2022-09-04T04:49:27.176Z,991.97
2022-09-04T04:50:27.124Z,992.03
2022-09-04T04:51:27.124Z,992.07
2022-09-04T04:52:27.092Z,992.08
2022-09-04T04:53:27.137Z,992.10
2022-09-04T04:54:27.086Z,992.12
2022-09-04T04:55:27.053Z,992.13
2022-09-04T04:56:27.115Z,992.12
2022-09-04T04:57:27.035Z,992.14
2022-09-04T04:58:27.046Z,992.25
2022-09-04T04:59:27.011Z,992.22
2022-09-04T05:00:27.819Z,992.23
2022-09-04T05:01:27.039Z,992.23
2022-09-04T05:02:27.141Z,992.26
2022-09-04T05:03:26.952Z,992.30
2022-09-04T05:04:26.943Z,992.28
2022-09-04T05:05:26.929Z,992.29
2022-09-04T05:06:26.932Z,992.29
2022-09-04T05:07:26.901Z,992.26
2022-09-04T05:08:26.898Z,992.28
2022-09-04T05:09:26.899Z,992.29
2022-09-04T05:10:26.889Z,992.32
2022-09-04T05:11:26.855Z,992.34
2022-09-04T05:12:26.862Z,992.30
2022-09-04T05:13:26.829Z,992.32
2022-09-04T05:14:26.834Z,992.28
2022-09-04T05:15:26.787Z,992.35
2022-09-04T05:16:26.830Z,992.34
2022-09-04T05:17:26.787Z,992.33
2022-09-04T05:18:26.765Z,992.31
2022-09-04T05:19:26.785Z,992.35
2022-09-04T05:20:26.715Z,992.36
2022-09-04T05:21:26.784Z,992.41
2022-09-04T05:22:26.716Z,992.40
2022-09-04T05:23:28.662Z,992.41
2022-09-04T05:24:26.706Z,992.46
2022-09-04T05:25:26.669Z,992.46
2022-09-04T05:26:26.710Z,992.50
2022-09-04T05:27:26.644Z,992.50
2022-09-04T05:28:26.779Z,992.52
2022-09-04T05:29:30.551Z,992.55
2022-09-04T05:30:27.613Z,992.54
2022-09-04T05:31:26.641Z,992.52
2022-09-04T05:32:26.566Z,992.55
2022-09-04T05:33:26.563Z,992.59
2022-09-04T05:34:26.533Z,992.62
2022-09-04T05:35:26.532Z,992.63
2022-09-04T05:36:27.552Z,992.64
2022-09-04T05:37:26.522Z,992.69
2022-09-04T05:38:26.505Z,992.67
2022-09-04T05:39:26.600Z,992.71
2022-09-04T05:40:26.466Z,992.73
2022-09-04T05:41:26.504Z,992.74
2022-09-04T05:42:26.501Z,992.79
2022-09-04T05:43:26.440Z,992.79
2022-09-04T05:44:26.418Z,992.80
2022-09-04T05:45:26.399Z,992.81
2022-09-04T05:46:26.478Z,992.80
2022-09-04T05:47:30.346Z,992.83
2022-09-04T05:48:26.562Z,992.81
2022-09-04T05:49:26.406Z,992.83
2022-09-04T05:50:26.379Z,992.85
2022-09-04T05:51:26.369Z,992.87
2022-09-04T05:52:26.339Z,992.87
2022-09-04T05:53:26.309Z,992.84
2022-09-04T05:54:26.403Z,992.87
2022-09-04T05:55:26.286Z,992.89
2022-09-04T05:56:26.298Z,992.91
2022-09-04T05:57:26.252Z,992.94
2022-09-04T05:58:26.357Z,992.95
2022-09-04T05:59:26.234Z,992.97
2022-09-04T06:00:26.218Z,993.03
2022-09-04T06:01:26.260Z,993.03
2022-09-04T06:02:26.423Z,993.02
2022-09-04T06:03:26.228Z,993.05
2022-09-04T06:04:26.211Z,993.02
2022-09-04T06:05:26.155Z,993.05
2022-09-04T06:06:26.155Z,993.06
2022-09-04T06:07:26.145Z,993.09
2022-09-04T06:08:28.679Z,993.08
2022-09-04T06:09:26.134Z,993.08
2022-09-04T06:10:26.094Z,993.08
2022-09-04T06:11:26.093Z,993.04
2022-09-04T06:12:26.264Z,993.08
2022-09-04T06:13:26.188Z,993.12
2022-09-04T06:14:26.059Z,993.10
2022-09-04T06:15:26.017Z,993.14
2022-09-04T06:16:26.077Z,993.10
2022-09-04T06:17:26.002Z,993.14
2022-09-04T06:18:26.133Z,993.14
2022-09-04T06:19:25.981Z,993.17
2022-09-04T06:20:26.034Z,993.15
2022-09-04T06:21:25.960Z,993.17
2022-09-04T06:22:25.993Z,993.15
2022-09-04T06:23:25.910Z,993.19
2022-09-04T06:24:25.928Z,993.17
2022-09-04T06:25:25.904Z,993.16
2022-09-04T06:26:25.897Z,993.15
2022-09-04T06:27:25.869Z,993.20
2022-09-04T06:28:26.049Z,993.21
2022-09-04T06:29:25.839Z,993.26
2022-09-04T06:30:25.923Z,993.24
2022-09-04T06:31:25.871Z,993.25
2022-09-04T06:32:25.837Z,993.24
2022-09-04T06:33:25.840Z,993.28
2022-09-04T06:34:25.797Z,993.25
2022-09-04T06:35:25.778Z,993.27
2022-09-04T06:36:25.770Z,993.30
2022-09-04T06:37:25.777Z,993.31
2022-09-04T06:38:25.839Z,993.30
2022-09-04T06:39:25.804Z,993.34
2022-09-04T06:40:25.726Z,993.37
2022-09-04T06:41:25.707Z,993.38
2022-09-04T06:42:25.686Z,993.44
2022-09-04T06:43:26.457Z,993.46
2022-09-04T06:44:25.658Z,993.49
2022-09-04T06:45:25.639Z,993.48
2022-09-04T06:46:25.707Z,993.43
2022-09-04T06:47:25.635Z,993.46
2022-09-04T06:48:25.717Z,993.50
2022-09-04T06:49:25.627Z,993.49
2022-09-04T06:50:25.563Z,993.49
2022-09-04T06:51:25.552Z,993.49
2022-09-04T06:52:25.545Z,993.49
2022-09-04T06:53:25.583Z,993.55
2022-09-04T06:54:25.562Z,993.51
2022-09-04T06:55:25.514Z,993.50
2022-09-04T06:56:25.492Z,993.54
2022-09-04T06:57:25.512Z,993.56
2022-09-04T06:58:25.528Z,993.52
2022-09-04T06:59:25.472Z,993.50
2022-09-04T07:00:25.695Z,993.55
2022-09-04T07:01:25.491Z,993.50
2022-09-04T07:02:25.528Z,993.52
2022-09-04T07:03:25.411Z,993.52
2022-09-04T07:04:25.411Z,993.51
2022-09-04T07:05:25.401Z,993.49
2022-09-04T07:06:25.373Z,993.52
2022-09-04T07:07:25.377Z,993.52
2022-09-04T07:08:25.497Z,993.47
2022-09-04T07:09:25.360Z,993.49
2022-09-04T07:10:25.314Z,993.53
2022-09-04T07:11:25.298Z,993.57
2022-09-04T07:12:25.324Z,993.52
2022-09-04T07:13:25.316Z,993.46
2022-09-04T07:14:25.257Z,993.47
2022-09-04T07:15:25.291Z,993.53
2022-09-04T07:16:25.245Z,993.45
2022-09-04T07:17:25.281Z,993.49
2022-09-04T07:18:25.316Z,993.53
2022-09-04T07:19:25.185Z,993.52
2022-09-04T07:20:25.192Z,993.54
2022-09-04T07:21:25.147Z,993.54
2022-09-04T07:22:25.189Z,993.55
2022-09-04T07:23:25.131Z,993.60
2022-09-04T07:24:25.126Z,993.58
2022-09-04T07:25:25.164Z,993.59
2022-09-04T07:26:25.095Z,993.62
2022-09-04T07:27:25.089Z,993.63
2022-09-04T07:28:25.138Z,993.63
2022-09-04T07:29:26.074Z,993.62
2022-09-04T07:30:25.100Z,993.64
2022-09-04T07:31:25.052Z,993.65
2022-09-04T07:32:25.034Z,993.68
2022-09-04T07:33:25.000Z,993.69
2022-09-04T07:34:24.997Z,993.74
2022-09-04T07:35:25.051Z,993.72
2022-09-04T07:36:29.480Z,993.76
2022-09-04T07:37:25.963Z,993.73
2022-09-04T07:38:25.065Z,993.77
2022-09-04T07:39:24.952Z,993.79
2022-09-04T07:40:24.912Z,993.81
2022-09-04T07:41:24.905Z,993.79
2022-09-04T07:42:24.881Z,993.78
2022-09-04T07:43:24.913Z,993.79
2022-09-04T07:44:24.890Z,993.78
2022-09-04T07:45:24.869Z,993.78
2022-09-04T07:46:24.872Z,993.77
2022-09-04T07:47:24.923Z,993.77
2022-09-04T07:48:24.896Z,993.74
2022-09-04T07:49:24.833Z,993.81
2022-09-04T07:50:24.779Z,993.79
2022-09-04T07:51:24.770Z,993.85
2022-09-04T07:52:24.755Z,993.82
2022-09-04T07:53:24.750Z,993.82
2022-09-04T07:54:24.773Z,993.83
2022-09-04T07:55:24.767Z,993.86
2022-09-04T07:56:24.830Z,993.87
2022-09-04T07:57:24.694Z,993.88
2022-09-04T07:58:24.732Z,993.91
2022-09-04T07:59:24.686Z,993.89
2022-09-04T08:00:24.706Z,993.92
2022-09-04T08:01:24.692Z,993.94
2022-09-04T08:02:24.625Z,993.95
2022-09-04T08:03:24.597Z,993.95
2022-09-04T08:04:24.634Z,993.97
2022-09-04T08:05:24.606Z,993.96
2022-09-04T08:06:24.595Z,994.00
2022-09-04T08:07:24.803Z,994.02
2022-09-04T08:08:24.668Z,994.05
2022-09-04T08:09:24.516Z,994.02
2022-09-04T08:10:24.627Z,994.06
2022-09-04T08:11:24.497Z,994.07
2022-09-04T08:12:24.518Z,994.06
2022-09-04T08:13:24.485Z,994.06
2022-09-04T08:14:24.464Z,994.12
2022-09-04T08:15:24.551Z,994.12
2022-09-04T08:16:24.480Z,994.14
2022-09-04T08:17:24.446Z,994.17
2022-09-04T08:18:24.588Z,994.20
2022-09-04T08:19:24.417Z,994.19
2022-09-04T08:20:24.421Z,994.19
2022-09-04T08:21:24.374Z,994.20
2022-09-04T08:22:28.265Z,994.25
2022-09-04T08:23:24.354Z,994.25
2022-09-04T08:24:24.322Z,994.22
2022-09-04T08:25:24.332Z,994.24
2022-09-04T08:26:24.352Z,994.25
2022-09-04T08:27:24.291Z,994.25
2022-09-04T08:28:24.301Z,994.23
2022-09-04T08:29:24.251Z,994.22
2022-09-04T08:30:24.284Z,994.22
2022-09-04T08:31:24.314Z,994.25
2022-09-04T08:32:24.262Z,994.22
2022-09-04T08:33:24.210Z,994.22
2022-09-04T08:34:24.190Z,994.26
2022-09-04T08:35:24.240Z,994.27
2022-09-04T08:36:24.192Z,994.28
2022-09-04T08:37:24.168Z,994.27
2022-09-04T08:38:24.220Z,994.28
2022-09-04T08:39:24.196Z,994.33
2022-09-04T08:40:24.131Z,994.32
2022-09-04T08:41:24.110Z,994.32
2022-09-04T08:42:24.770Z,994.33
2022-09-04T08:43:24.119Z,994.33
2022-09-04T08:44:24.077Z,994.36
2022-09-04T08:45:24.098Z,994.34
2022-09-04T08:46:28.313Z,994.39
2022-09-04T08:47:25.028Z,994.36
2022-09-04T08:48:24.243Z,994.35
2022-09-04T08:49:24.038Z,994.33
2022-09-04T08:50:24.054Z,994.33
2022-09-04T08:51:23.957Z,994.39
2022-09-04T08:52:23.987Z,994.38
2022-09-04T08:53:23.957Z,994.41
2022-09-04T08:54:23.959Z,994.39
2022-09-04T08:55:23.955Z,994.43
2022-09-04T08:56:23.908Z,994.46
2022-09-04T08:57:23.961Z,994.46
2022-09-04T08:58:23.976Z,994.49
2022-09-04T08:59:23.876Z,994.47
2022-09-04T09:00:23.979Z,994.46
2022-09-04T09:01:23.949Z,994.49
2022-09-04T09:02:23.889Z,994.44
2022-09-04T09:03:23.835Z,994.42
2022-09-04T09:04:23.815Z,994.44
2022-09-04T09:05:24.000Z,994.42
2022-09-04T09:06:23.804Z,994.46
2022-09-04T09:07:23.845Z,994.39
2022-09-04T09:08:24.979Z,994.41
2022-09-04T09:09:23.823Z,994.42
2022-09-04T09:10:23.733Z,994.45
2022-09-04T09:11:23.911Z,994.42
2022-09-04T09:12:23.789Z,994.44
2022-09-04T09:13:23.877Z,994.40
2022-09-04T09:14:23.949Z,994.45
2022-09-04T09:15:23.972Z,994.44
2022-09-04T09:16:23.735Z,994.46
2022-09-04T09:17:26.187Z,994.47
2022-09-04T09:18:24.776Z,994.41
2022-09-04T09:19:23.641Z,994.41
2022-09-04T09:20:23.766Z,994.43
2022-09-04T09:21:23.641Z,994.44
2022-09-04T09:22:23.629Z,994.43
2022-09-04T09:23:23.634Z,994.40
2022-09-04T09:24:23.634Z,994.44
2022-09-04T09:25:23.662Z,994.46
2022-09-04T09:26:23.737Z,994.45
2022-09-04T09:27:23.540Z,994.42
2022-09-04T09:28:23.511Z,994.41
2022-09-04T09:29:23.491Z,994.42
2022-09-04T09:30:23.497Z,994.44
2022-09-04T09:31:23.555Z,994.41
2022-09-04T09:32:23.453Z,994.44
2022-09-04T09:33:23.488Z,994.47
2022-09-04T09:34:23.468Z,994.45
2022-09-04T09:35:23.448Z,994.47
2022-09-04T09:36:23.407Z,994.45
2022-09-04T09:37:23.407Z,994.44
2022-09-04T09:38:23.380Z,994.39
2022-09-04T09:39:23.407Z,994.39
2022-09-04T09:40:23.346Z,994.40
2022-09-04T09:41:23.348Z,994.38
2022-09-04T09:42:23.328Z,994.40
2022-09-04T09:43:23.389Z,994.40
2022-09-04T09:44:23.318Z,994.39
2022-09-04T09:45:23.285Z,994.46
2022-09-04T09:46:23.398Z,994.40
2022-09-04T09:47:23.276Z,994.41
2022-09-04T09:48:23.273Z,994.37
2022-09-04T09:49:23.237Z,994.36
2022-09-04T09:50:23.225Z,994.34
2022-09-04T09:51:23.266Z,994.32
2022-09-04T09:52:23.206Z,994.31
2022-09-04T09:53:23.279Z,994.32
2022-09-04T09:54:23.162Z,994.25
2022-09-04T09:55:23.175Z,994.21
2022-09-04T09:56:23.142Z,994.25
2022-09-04T09:57:33.464Z,994.20
2022-09-04T09:58:24.142Z,994.20
2022-09-04T09:59:23.118Z,994.18
2022-09-04T10:00:23.120Z,994.19
2022-09-04T10:01:23.127Z,994.21
2022-09-04T10:02:23.122Z,994.25
2022-09-04T10:03:23.093Z,994.25
2022-09-04T10:04:23.050Z,994.24
2022-09-04T10:05:23.033Z,994.24
2022-09-04T10:06:23.036Z,994.22
2022-09-04T10:07:23.020Z,994.22
2022-09-04T10:08:35.428Z,994.19
2022-09-04T10:09:24.010Z,994.21
2022-09-04T10:10:22.996Z,994.19
2022-09-04T10:11:22.975Z,994.22
2022-09-04T10:12:22.950Z,994.19
2022-09-04T10:13:22.995Z,994.22
2022-09-04T10:14:25.149Z,994.21
2022-09-04T10:15:22.917Z,994.22
2022-09-04T10:16:22.923Z,994.24
2022-09-04T10:17:22.904Z,994.18
2022-09-04T10:18:22.939Z,994.20
2022-09-04T10:19:22.860Z,994.19
2022-09-04T10:20:22.848Z,994.18
2022-09-04T10:21:22.890Z,994.19
2022-09-04T10:22:22.821Z,994.15
2022-09-04T10:23:22.849Z,994.22
2022-09-04T10:24:22.800Z,994.20
2022-09-04T10:25:22.790Z,994.22
2022-09-04T10:26:22.810Z,994.20
2022-09-04T10:27:22.746Z,994.17
2022-09-04T10:28:22.891Z,994.18
2022-09-04T10:29:22.928Z,994.21
2022-09-04T10:30:22.790Z,994.16
2022-09-04T10:31:22.708Z,994.12
2022-09-04T10:32:22.688Z,994.12
2022-09-04T10:33:22.691Z,994.16
2022-09-04T10:34:22.667Z,994.18
2022-09-04T10:35:22.656Z,994.24
2022-09-04T10:36:22.647Z,994.19
2022-09-04T10:37:22.606Z,994.21
2022-09-04T10:38:22.622Z,994.17
2022-09-04T10:39:22.648Z,994.16
2022-09-04T10:40:22.586Z,994.17
2022-09-04T10:41:22.801Z,994.17
2022-09-04T10:42:22.656Z,994.18
2022-09-04T10:43:22.681Z,994.14
2022-09-04T10:44:22.569Z,994.16
2022-09-04T10:45:22.515Z,994.17
2022-09-04T10:46:23.389Z,994.15
2022-09-04T10:47:22.505Z,994.13
2022-09-04T10:48:26.551Z,994.14
2022-09-04T10:49:23.458Z,994.12
2022-09-04T10:50:22.456Z,994.08
2022-09-04T10:51:22.454Z,994.13
2022-09-04T10:52:22.435Z,994.11
2022-09-04T10:53:22.499Z,994.04
2022-09-04T10:54:22.393Z,994.02
2022-09-04T10:55:22.397Z,994.04
2022-09-04T10:56:22.602Z,993.99
2022-09-04T10:57:22.794Z,994.02
2022-09-04T10:58:22.551Z,994.01
2022-09-04T10:59:22.340Z,993.99
2022-09-04T11:00:22.349Z,994.02
2022-09-04T11:01:22.378Z,994.01
2022-09-04T11:02:22.637Z,994.01
2022-09-04T11:03:22.411Z,994.02
2022-09-04T11:04:22.303Z,994.01
2022-09-04T11:05:22.389Z,994.02
2022-09-04T11:06:22.256Z,994.02
2022-09-04T11:07:25.740Z,994.00
2022-09-04T11:08:23.258Z,994.02
2022-09-04T11:09:22.192Z,994.04
2022-09-04T11:10:22.202Z,994.05
2022-09-04T11:11:22.198Z,994.04
2022-09-04T11:12:22.177Z,994.01
2022-09-04T11:13:22.150Z,994.00
2022-09-04T11:14:22.147Z,994.01
2022-09-04T11:15:22.228Z,993.99
2022-09-04T11:16:22.263Z,994.04
2022-09-04T11:17:22.127Z,994.01
2022-09-04T11:18:22.120Z,994.01
2022-09-04T11:19:22.079Z,993.98
2022-09-04T11:20:22.066Z,994.00
2022-09-04T11:21:22.069Z,994.01
2022-09-04T11:22:22.322Z,994.03
2022-09-04T11:23:22.195Z,994.04
2022-09-04T11:24:22.102Z,994.02
2022-09-04T11:25:22.056Z,993.96
2022-09-04T11:26:22.039Z,993.99
2022-09-04T11:27:22.018Z,993.97
2022-09-04T11:28:21.958Z,993.97
2022-09-04T11:29:21.968Z,994.01
2022-09-04T11:30:21.928Z,993.96
2022-09-04T11:31:22.009Z,993.95
2022-09-04T11:32:21.907Z,993.96
2022-09-04T11:33:21.959Z,993.91
2022-09-04T11:34:21.878Z,993.93
2022-09-04T11:35:21.903Z,993.92
2022-09-04T11:36:21.857Z,993.91
2022-09-04T11:37:21.876Z,993.93
2022-09-04T11:38:21.941Z,993.96
2022-09-04T11:39:21.855Z,993.91
2022-09-04T11:40:21.797Z,993.89
2022-09-04T11:41:21.802Z,993.87
2022-09-04T11:42:21.845Z,993.92
2022-09-04T11:43:21.786Z,993.93
2022-09-04T11:44:21.815Z,993.83
2022-09-04T11:45:22.107Z,993.89
2022-09-04T11:46:21.746Z,993.82
2022-09-04T11:47:21.730Z,993.87
2022-09-04T11:48:21.704Z,993.87
2022-09-04T11:49:21.717Z,993.86
2022-09-04T11:50:21.694Z,993.85
2022-09-04T11:51:21.730Z,993.92
2022-09-04T11:52:21.645Z,993.91
2022-09-04T11:53:21.693Z,993.89
2022-09-04T11:54:21.645Z,993.91
2022-09-04T11:55:22.574Z,993.91
2022-09-04T11:56:21.593Z,993.90
2022-09-04T11:57:21.604Z,993.85
2022-09-04T11:58:21.581Z,993.92
2022-09-04T11:59:21.603Z,993.88
2022-09-04T12:00:21.562Z,993.85
2022-09-04T12:01:21.562Z,993.89
2022-09-04T12:02:21.655Z,993.86
2022-09-04T12:03:21.546Z,993.89
2022-09-04T12:04:21.566Z,993.91
2022-09-04T12:05:21.513Z,993.92
2022-09-04T12:06:21.471Z,993.89
2022-09-04T12:07:21.482Z,993.89
2022-09-04T12:08:21.461Z,993.93
2022-09-04T12:09:21.466Z,993.98
2022-09-04T12:10:21.436Z,993.93
2022-09-04T12:11:21.432Z,993.89
2022-09-04T12:12:21.411Z,993.86
2022-09-04T12:13:21.381Z,993.90
2022-09-04T12:14:21.380Z,993.83
2022-09-04T12:15:21.380Z,993.82
2022-09-04T12:16:21.474Z,993.79
2022-09-04T12:17:21.372Z,993.80
2022-09-04T12:18:21.342Z,993.79
2022-09-04T12:19:21.319Z,993.87
2022-09-04T12:20:21.434Z,993.83
2022-09-04T12:21:21.394Z,993.84
2022-09-04T12:22:21.289Z,993.87
2022-09-04T12:23:21.259Z,993.85
2022-09-04T12:24:21.239Z,993.87
2022-09-04T12:25:21.258Z,993.83
2022-09-04T12:26:21.222Z,993.79
2022-09-04T12:27:21.256Z,993.76
2022-09-04T12:28:21.218Z,993.75